Time;durP1;ratioP1;P1;durP2;ratioP2;P2;SDS_P1;SDS_P2;PMS_P1;PMS_P2;Temp;Humidity;BMP_temperature;BMP_pressure;BME280_temperature;BME280_humidity;BME280_pressure;Samples;Min_cycle;Max_cycle;Signal;HPM_P1;HPM_P2
2022/03/23 00:01:21;;;;;;;22.10;12.70;;;3.90;99.90;;;;;;5036868;28;20018;-78
2022/03/23 00:03:47;;;;;;;27.27;13.85;;;3.90;99.90;;;;;;5020259;28;20022;-78
2022/03/23 00:06:13;;;;;;;24.40;12.93;;;3.90;99.90;;;;;;5038302;28;20478;-78
2022/03/23 00:08:40;;;;;;;25.70;13.70;;;3.90;99.90;;;;;;5037937;28;20152;-79
2022/03/23 00:11:06;;;;;;;25.10;13.90;;;3.90;99.90;;;;;;5025048;28;20059;-78
2022/03/23 00:13:32;;;;;;;21.27;13.02;;;3.90;99.90;;;;;;5027583;28;20021;-78
2022/03/23 00:15:58;;;;;;;21.83;12.95;;;3.90;99.90;;;;;;5033321;28;20124;-78
2022/03/23 00:18:24;;;;;;;23.20;13.43;;;4.00;99.90;;;;;;5033752;28;20029;-76
2022/03/23 00:20:51;;;;;;;25.42;14.52;;;4.00;99.90;;;;;;5015891;28;20057;-80
2022/03/23 00:23:16;;;;;;;25.60;13.98;;;4.00;99.90;;;;;;5032994;28;20186;-78
2022/03/23 00:25:42;;;;;;;32.50;15.18;;;4.00;99.90;;;;;;5032960;28;20025;-79
2022/03/23 00:28:08;;;;;;;24.83;14.48;;;4.00;99.90;;;;;;5032112;28;20030;-79
2022/03/23 00:30:34;;;;;;;29.42;15.32;;;4.00;99.90;;;;;;5032073;28;20037;-79
2022/03/23 00:33:02;;;;;;;32.45;14.93;;;4.00;99.90;;;;;;5033665;28;20077;-79
2022/03/23 00:35:28;;;;;;;27.08;15.25;;;4.00;99.90;;;;;;5015972;28;20034;-81
2022/03/23 00:37:55;;;;;;;28.10;14.80;;;4.00;99.90;;;;;;5033319;28;20068;-78
2022/03/23 00:40:21;;;;;;;28.08;16.15;;;4.00;99.90;;;;;;5015510;28;20018;-78
2022/03/23 00:42:47;;;;;;;30.77;15.50;;;4.00;99.90;;;;;;5055110;22;20343;-75
2022/03/23 00:45:13;;;;;;;30.20;15.55;;;4.00;99.90;;;;;;5048878;28;20029;-76
2022/03/23 00:47:40;;;;;;;24.67;14.68;;;4.00;99.90;;;;;;5052718;28;20024;-76
2022/03/23 00:50:06;;;;;;;27.73;15.68;;;3.90;99.90;;;;;;5035532;28;20021;-76
2022/03/23 00:52:32;;;;;;;27.30;15.20;;;3.90;99.90;;;;;;5055170;28;20431;-78
2022/03/23 00:54:57;;;;;;;25.30;15.45;;;3.80;99.90;;;;;;5053146;28;20036;-76
2022/03/23 00:57:23;;;;;;;26.13;15.50;;;3.80;99.90;;;;;;5035326;28;20036;-78
2022/03/23 00:59:48;;;;;;;25.13;14.38;;;3.70;99.90;;;;;;5037260;28;20025;-78
2022/03/23 01:02:14;;;;;;;24.27;14.73;;;3.70;99.90;;;;;;5055159;28;20118;-76
2022/03/23 01:04:41;;;;;;;25.65;14.02;;;3.70;99.90;;;;;;5056477;28;20083;-77
2022/03/23 01:07:06;;;;;;;25.45;15.27;;;3.60;99.90;;;;;;5037885;28;20466;-77
2022/03/23 01:09:32;;;;;;;27.75;14.00;;;3.60;99.90;;;;;;5056121;28;20072;-77
2022/03/23 01:11:58;;;;;;;26.33;14.52;;;3.60;99.90;;;;;;5042655;28;20443;-77
2022/03/23 01:14:25;;;;;;;31.27;16.00;;;3.60;99.90;;;;;;5040803;28;20028;-77
2022/03/23 01:16:52;;;;;;;28.35;15.65;;;3.60;99.90;;;;;;5043017;28;20492;-77
2022/03/23 01:19:22;;;;;;;32.30;16.70;;;3.60;99.90;;;;;;5043487;28;20025;-77
2022/03/23 01:21:48;;;;;;;32.15;16.30;;;3.60;99.90;;;;;;5045631;28;20028;-78
2022/03/23 01:24:13;;;;;;;27.75;15.30;;;3.60;99.90;;;;;;5059503;28;20110;-78
2022/03/23 01:26:39;;;;;;;30.77;16.27;;;3.60;99.90;;;;;;5062163;28;20021;-77
2022/03/23 01:29:04;;;;;;;29.08;15.98;;;3.60;99.90;;;;;;5060820;28;20172;-77
2022/03/23 01:31:31;;;;;;;26.02;14.20;;;3.60;99.90;;;;;;5071179;28;20523;-77
2022/03/23 01:33:59;;;;;;;30.85;15.95;;;3.60;99.90;;;;;;5058338;28;20444;-77
2022/03/23 01:36:29;;;;;;;26.30;15.18;;;3.60;99.90;;;;;;5056192;28;20116;-77
2022/03/23 01:38:56;;;;;;;27.05;15.07;;;3.50;99.90;;;;;;5055936;28;20051;-77
2022/03/23 01:41:22;;;;;;;29.20;16.13;;;3.50;99.90;;;;;;5056357;28;20121;-77
2022/03/23 01:43:48;;;;;;;30.48;15.63;;;3.50;99.90;;;;;;5052463;28;20037;-77
2022/03/23 01:46:17;;;;;;;26.00;14.90;;;3.50;99.90;;;;;;5036143;28;20026;-77
2022/03/23 01:48:44;;;;;;;29.10;15.27;;;3.50;99.90;;;;;;5036052;28;20032;-77
2022/03/23 01:51:10;;;;;;;28.55;15.25;;;3.50;99.90;;;;;;5018382;28;20039;-77
2022/03/23 01:53:36;;;;;;;25.52;14.75;;;3.50;99.90;;;;;;5018538;28;20477;-77
2022/03/23 01:56:02;;;;;;;28.15;14.68;;;3.30;99.90;;;;;;5036042;28;20025;-77
2022/03/23 01:58:28;;;;;;;29.70;14.18;;;3.20;99.90;;;;;;5036004;28;20108;-77
2022/03/23 02:00:54;;;;;;;26.27;15.00;;;3.10;99.90;;;;;;5035997;28;20037;-77
2022/03/23 02:03:19;;;;;;;28.00;14.93;;;3.00;99.90;;;;;;5036291;28;20034;-77
2022/03/23 02:05:45;;;;;;;24.42;13.05;;;2.90;99.90;;;;;;5035953;28;20032;-77
2022/03/23 02:08:12;;;;;;;23.85;14.23;;;2.80;99.90;;;;;;5035842;28;20064;-77
2022/03/23 02:10:37;;;;;;;30.42;15.57;;;2.70;99.90;;;;;;5035967;28;20524;-77
2022/03/23 02:13:03;;;;;;;23.52;13.93;;;2.70;99.90;;;;;;5018173;28;20037;-78
2022/03/23 02:15:29;;;;;;;23.88;14.35;;;2.60;99.90;;;;;;5018936;28;20033;-77
2022/03/23 02:17:57;;;;;;;24.35;13.77;;;2.50;99.90;;;;;;5018154;28;20029;-77
2022/03/23 02:20:24;;;;;;;25.63;14.63;;;2.50;99.90;;;;;;5017323;28;20025;-76
2022/03/23 02:22:50;;;;;;;24.98;14.68;;;2.40;99.90;;;;;;5034683;28;20029;-76
2022/03/23 02:25:21;;;;;;;26.70;14.38;;;2.30;99.90;;;;;;5017617;28;20026;-77
2022/03/23 02:27:47;;;;;;;25.38;14.18;;;2.30;99.90;;;;;;5038173;28;20361;-76
2022/03/23 02:30:13;;;;;;;22.63;14.63;;;2.20;99.90;;;;;;5036443;28;20034;-75
2022/03/23 02:32:39;;;;;;;25.98;14.38;;;2.20;99.90;;;;;;5034785;28;20108;-76
2022/03/23 02:35:07;;;;;;;26.70;15.02;;;2.10;99.90;;;;;;5034550;28;20056;-76
2022/03/23 02:37:32;;;;;;;27.70;15.85;;;2.10;99.90;;;;;;5034752;28;20022;-77
2022/03/23 02:39:58;;;;;;;29.45;16.42;;;2.10;99.90;;;;;;5035762;28;20100;-76
2022/03/23 02:42:23;;;;;;;28.80;16.30;;;2.10;99.90;;;;;;5035973;28;20034;-77
2022/03/23 02:44:49;;;;;;;26.58;16.05;;;2.00;99.90;;;;;;5047773;28;20056;-77
2022/03/23 02:47:15;;;;;;;27.90;15.52;;;2.00;99.90;;;;;;5055524;28;20040;-76
2022/03/23 02:49:40;;;;;;;26.38;15.35;;;2.00;99.90;;;;;;5055166;28;20052;-77
2022/03/23 02:52:06;;;;;;;29.02;16.40;;;2.00;99.90;;;;;;5056157;28;20048;-77
2022/03/23 03:03:26;;;;;;;29.38;16.48;;;2.20;99.90;;;;;;5045092;28;20506;-76
2022/03/23 03:05:52;;;;;;;31.17;17.10;;;2.30;99.90;;;;;;5037262;28;20021;-76
2022/03/23 03:11:01;;;;;;;24.15;15.15;;;2.40;99.90;;;;;;5055148;28;20456;-77
2022/03/23 03:13:29;;;;;;;25.33;14.65;;;2.30;99.90;;;;;;5035851;28;20029;-76
2022/03/23 03:16:00;;;;;;;33.38;16.45;;;2.30;99.90;;;;;;5053273;28;20100;-75
2022/03/23 03:18:29;;;;;;;31.20;16.15;;;2.20;99.90;;;;;;5035611;28;20025;-76
2022/03/23 03:20:54;;;;;;;26.58;15.88;;;2.30;99.90;;;;;;5053559;28;20438;-76
2022/03/23 03:23:20;;;;;;;29.00;16.48;;;2.30;99.90;;;;;;5036482;28;20025;-76
2022/03/23 03:25:45;;;;;;;27.00;15.57;;;2.30;99.90;;;;;;5058510;28;20074;-77
2022/03/23 03:28:11;;;;;;;32.85;17.50;;;2.20;99.90;;;;;;5059186;28;20060;-77
2022/03/23 03:30:36;;;;;;;30.25;15.52;;;2.30;99.90;;;;;;5058814;28;20183;-77
2022/03/23 03:33:02;;;;;;;24.90;14.35;;;2.20;99.90;;;;;;5058201;28;20025;-77
2022/03/23 03:35:27;;;;;;;25.45;15.55;;;2.20;99.90;;;;;;5059233;28;20032;-77
2022/03/23 03:37:54;;;;;;;25.73;14.70;;;2.10;99.90;;;;;;5036053;28;20037;-76
2022/03/23 03:40:19;;;;;;;28.65;15.68;;;2.00;99.90;;;;;;5038711;28;20029;-78
2022/03/23 03:42:45;;;;;;;30.33;15.90;;;1.90;99.90;;;;;;5041297;28;20040;-77
2022/03/23 03:45:10;;;;;;;28.70;16.55;;;2.00;99.90;;;;;;5047189;28;20021;-78
2022/03/23 03:47:36;;;;;;;26.83;15.00;;;2.00;99.90;;;;;;5042781;28;20026;-78
2022/03/23 03:50:02;;;;;;;31.48;16.85;;;1.90;99.90;;;;;;5025064;28;20025;-78
2022/03/23 03:52:28;;;;;;;31.08;16.48;;;1.80;99.90;;;;;;5042991;28;20496;-78
2022/03/23 03:54:53;;;;;;;27.27;16.35;;;1.80;99.90;;;;;;5042007;28;20025;-78
2022/03/23 03:57:19;;;;;;;29.27;15.52;;;1.80;99.90;;;;;;5041897;28;20033;-77
2022/03/23 03:59:45;;;;;;;28.27;16.27;;;1.90;99.90;;;;;;5040980;28;20030;-78
2022/03/23 04:02:11;;;;;;;34.17;16.65;;;1.90;99.90;;;;;;5040355;28;20029;-76
2022/03/23 04:04:36;;;;;;;28.95;17.08;;;1.90;99.90;;;;;;5020243;28;20056;-77
2022/03/23 04:07:04;;;;;;;31.15;17.17;;;1.90;99.90;;;;;;5017304;28;20464;-77
2022/03/23 04:09:29;;;;;;;32.85;17.02;;;2.00;99.90;;;;;;5018410;28;20656;-76
2022/03/23 04:11:55;;;;;;;27.70;16.05;;;2.00;99.90;;;;;;5034669;28;20061;-76
2022/03/23 04:14:20;;;;;;;30.88;16.15;;;2.00;99.90;;;;;;5017027;28;20075;-76
2022/03/23 04:16:46;;;;;;;29.35;15.93;;;2.00;99.90;;;;;;5015092;28;20488;-75
2022/03/23 04:19:11;;;;;;;27.88;16.55;;;2.00;99.90;;;;;;5035162;28;20348;-76
2022/03/23 04:21:37;;;;;;;28.25;15.93;;;2.00;99.90;;;;;;5015792;28;20034;-76
2022/03/23 04:24:03;;;;;;;29.27;17.08;;;2.00;99.90;;;;;;5034586;28;20025;-77
2022/03/23 04:26:28;;;;;;;30.38;16.65;;;2.00;99.90;;;;;;5035163;28;20026;-77
2022/03/23 04:28:54;;;;;;;32.05;17.02;;;2.00;99.90;;;;;;5034219;28;20064;-77
2022/03/23 04:31:20;;;;;;;33.65;17.23;;;2.00;99.90;;;;;;5035542;28;20454;-76
2022/03/23 04:33:46;;;;;;;28.40;16.98;;;2.10;99.90;;;;;;5016884;28;20056;-76
2022/03/23 04:36:12;;;;;;;30.05;16.88;;;2.10;99.90;;;;;;5016071;28;20037;-77
2022/03/23 04:38:37;;;;;;;28.50;15.73;;;2.20;99.90;;;;;;5016343;28;20127;-77
2022/03/23 04:41:04;;;;;;;27.60;16.02;;;2.20;99.90;;;;;;5016681;28;20456;-77
2022/03/23 04:43:30;;;;;;;31.45;16.20;;;2.10;99.90;;;;;;5018020;28;20481;-76
2022/03/23 04:45:56;;;;;;;30.52;18.02;;;2.10;99.90;;;;;;5040628;28;20119;-77
2022/03/23 04:48:22;;;;;;;31.65;17.63;;;2.10;99.90;;;;;;5057552;28;20542;-76
2022/03/23 04:50:48;;;;;;;29.55;16.40;;;2.20;99.90;;;;;;5058348;28;20039;-77
2022/03/23 04:53:14;;;;;;;30.88;17.70;;;2.20;99.90;;;;;;5039536;28;20029;-77
2022/03/23 04:55:40;;;;;;;29.42;16.60;;;2.20;99.90;;;;;;5059229;28;20044;-76
2022/03/23 04:58:06;;;;;;;31.80;17.30;;;2.20;99.90;;;;;;5058091;28;20389;-77
2022/03/23 05:00:33;;;;;;;31.13;18.27;;;2.20;99.90;;;;;;5058225;28;20369;-76
2022/03/23 05:02:58;;;;;;;33.20;17.02;;;2.30;99.90;;;;;;5059134;28;20028;-77
2022/03/23 05:05:24;;;;;;;35.72;18.83;;;2.30;99.90;;;;;;5058071;28;20029;-77
2022/03/23 05:07:50;;;;;;;29.75;16.98;;;2.30;99.90;;;;;;5058358;28;20044;-76
2022/03/23 05:10:15;;;;;;;35.13;17.08;;;2.30;99.90;;;;;;5058372;28;20059;-76
2022/03/23 05:12:43;;;;;;;34.17;17.35;;;2.40;99.90;;;;;;5056570;28;20060;-79
2022/03/23 05:15:09;;;;;;;31.58;16.73;;;2.40;99.90;;;;;;5039711;28;20201;-77
2022/03/23 05:17:36;;;;;;;24.85;15.57;;;2.40;99.90;;;;;;5040103;28;20044;-76
2022/03/23 05:20:04;;;;;;;31.85;16.42;;;2.40;99.90;;;;;;5057114;28;20067;-76
2022/03/23 05:22:30;;;;;;;25.88;15.70;;;2.40;99.90;;;;;;5039448;28;20179;-77
2022/03/23 05:24:56;;;;;;;30.00;17.17;;;2.40;99.90;;;;;;5061312;28;20044;-78
2022/03/23 05:27:21;;;;;;;31.42;17.27;;;2.40;99.90;;;;;;5044575;28;20029;-77
2022/03/23 05:29:47;;;;;;;28.65;16.35;;;2.40;99.90;;;;;;5060766;28;20025;-76
2022/03/23 05:32:16;;;;;;;29.40;16.83;;;2.40;99.90;;;;;;5059015;28;20229;-77
2022/03/23 05:34:46;;;;;;;29.60;16.77;;;2.30;99.90;;;;;;5042349;28;20108;-77
2022/03/23 05:37:11;;;;;;;29.13;16.75;;;2.20;99.90;;;;;;5057831;28;20020;-77
2022/03/23 05:39:38;;;;;;;31.33;16.85;;;2.20;99.90;;;;;;5058355;28;20033;-77
2022/03/23 05:42:04;;;;;;;27.27;15.27;;;2.20;99.90;;;;;;5059366;28;20042;-76
2022/03/23 05:44:29;;;;;;;27.58;17.02;;;2.20;99.90;;;;;;5032958;28;20029;-78
2022/03/23 05:46:55;;;;;;;27.65;15.75;;;2.20;99.90;;;;;;5037108;28;20026;-76
2022/03/23 05:49:21;;;;;;;28.33;16.75;;;2.10;99.90;;;;;;5022927;28;20096;-78
2022/03/23 05:51:46;;;;;;;27.73;16.20;;;2.20;99.90;;;;;;5035937;28;20022;-76
2022/03/23 05:54:12;;;;;;;35.03;16.35;;;2.20;99.90;;;;;;5037179;28;20502;-77
2022/03/23 05:56:37;;;;;;;36.15;18.10;;;2.20;99.90;;;;;;5046877;28;20245;-79
2022/03/23 05:59:03;;;;;;;30.95;17.25;;;2.30;99.90;;;;;;5048556;28;20026;-79
2022/03/23 06:01:29;;;;;;;31.52;15.63;;;2.40;99.90;;;;;;5030683;28;20029;-80
2022/03/23 06:03:54;;;;;;;30.75;16.80;;;2.50;99.90;;;;;;5030935;28;20031;-78
2022/03/23 06:06:20;;;;;;;32.40;16.70;;;2.60;99.90;;;;;;5020240;28;20396;-76
2022/03/23 06:08:46;;;;;;;26.77;16.35;;;2.70;99.90;;;;;;5037116;28;20021;-77
2022/03/23 06:11:11;;;;;;;30.65;16.88;;;2.80;99.90;;;;;;5018139;28;20022;-76
2022/03/23 06:13:37;;;;;;;34.67;18.38;;;2.90;99.90;;;;;;5036465;28;20073;-77
2022/03/23 06:16:03;;;;;;;31.48;16.83;;;3.10;99.90;;;;;;5036486;28;20017;-77
2022/03/23 06:18:29;;;;;;;32.63;16.67;;;3.20;99.90;;;;;;5021649;28;20032;-78
2022/03/23 06:20:54;;;;;;;28.52;16.23;;;3.40;99.90;;;;;;5036635;28;20045;-77
2022/03/23 06:23:20;;;;;;;31.73;15.68;;;3.50;99.90;;;;;;5019319;28;20049;-77
2022/03/23 06:25:45;;;;;;;28.95;15.82;;;3.70;99.90;;;;;;5021821;28;20032;-78
2022/03/23 06:28:11;;;;;;;31.15;15.63;;;3.80;99.90;;;;;;5022080;28;20048;-78
2022/03/23 06:30:37;;;;;;;27.00;16.90;;;4.00;99.90;;;;;;5024979;28;20086;-78
2022/03/23 06:33:02;;;;;;;29.48;15.70;;;4.20;99.90;;;;;;5039585;28;20025;-77
2022/03/23 06:35:29;;;;;;;29.73;16.23;;;4.40;99.90;;;;;;5040143;28;20056;-78
2022/03/23 06:37:55;;;;;;;27.45;16.30;;;4.60;99.90;;;;;;5022070;28;20036;-78
2022/03/23 06:40:21;;;;;;;29.60;16.13;;;4.80;99.90;;;;;;5020634;28;20025;-78
2022/03/23 06:42:47;;;;;;;24.70;14.75;;;5.10;99.90;;;;;;5063598;22;20085;-78
2022/03/23 06:45:13;;;;;;;26.25;15.38;;;5.40;99.90;;;;;;5033937;28;20071;-77
2022/03/23 06:47:39;;;;;;;28.35;15.90;;;5.60;99.90;;;;;;5056971;28;20023;-78
2022/03/23 06:50:07;;;;;;;25.55;15.30;;;5.90;99.90;;;;;;5055283;28;20488;-78
2022/03/23 06:52:33;;;;;;;23.27;14.68;;;6.30;99.90;;;;;;5056911;28;20021;-80
2022/03/23 06:54:58;;;;;;;25.10;13.82;;;6.60;99.90;;;;;;5055384;28;20029;-77
2022/03/23 06:57:24;;;;;;;24.67;13.43;;;7.00;99.90;;;;;;5055242;28;20392;-79
2022/03/23 06:59:49;;;;;;;23.50;14.90;;;7.40;99.90;;;;;;5038077;28;20067;-78
2022/03/23 07:02:15;;;;;;;21.35;13.90;;;7.80;99.90;;;;;;5056733;28;20024;-80
2022/03/23 07:04:41;;;;;;;22.02;13.43;;;8.20;99.90;;;;;;5054994;28;20017;-79
2022/03/23 07:07:06;;;;;;;24.60;15.77;;;8.60;99.90;;;;;;5055055;28;20013;-80
2022/03/23 07:09:32;;;;;;;24.52;15.68;;;8.80;99.90;;;;;;5054525;28;20021;-78
2022/03/23 07:11:59;;;;;;;24.50;14.60;;;9.00;99.90;;;;;;5037904;28;20403;-82
2022/03/23 07:14:26;;;;;;;23.33;13.27;;;9.10;99.90;;;;;;5056206;28;20021;-78
2022/03/23 07:16:52;;;;;;;23.20;13.27;;;9.30;99.90;;;;;;5054604;28;20032;-80
2022/03/23 07:19:17;;;;;;;23.65;12.88;;;9.50;99.90;;;;;;5055919;28;20029;-80
2022/03/23 07:21:43;;;;;;;23.55;14.18;;;9.70;99.90;;;;;;5055559;28;20021;-78
2022/03/23 07:24:08;;;;;;;33.70;14.90;;;9.90;99.90;;;;;;5055790;28;20039;-77
2022/03/23 07:26:34;;;;;;;25.70;14.93;;;10.10;99.90;;;;;;5037973;28;20088;-80
2022/03/23 07:29:01;;;;;;;26.48;13.70;;;10.40;99.90;;;;;;5056426;28;20025;-80
2022/03/23 07:31:28;;;;;;;28.65;14.52;;;10.70;99.90;;;;;;5057404;28;20024;-80
2022/03/23 07:33:54;;;;;;;29.30;15.07;;;11.00;97.60;;;;;;5056239;28;20097;-79
2022/03/23 07:36:19;;;;;;;22.85;15.35;;;11.30;96.60;;;;;;5058043;28;20021;-82
2022/03/23 07:38:45;;;;;;;26.48;14.98;;;11.50;90.90;;;;;;5046968;28;20413;-80
2022/03/23 07:41:10;;;;;;;26.48;14.68;;;11.60;88.70;;;;;;5065857;28;20025;-80
2022/03/23 07:43:36;;;;;;;28.65;14.50;;;11.70;84.90;;;;;;5060475;28;20029;-79
2022/03/23 07:46:02;;;;;;;28.50;14.98;;;11.70;84.20;;;;;;5037180;28;20032;-78
2022/03/23 07:48:28;;;;;;;28.20;15.65;;;11.90;85.20;;;;;;5034683;28;20436;-81
2022/03/23 07:50:55;;;;;;;23.75;14.90;;;12.10;78.80;;;;;;5034399;28;20484;-79
2022/03/23 07:53:20;;;;;;;22.98;14.27;;;12.30;77.80;;;;;;5017729;28;20090;-81
2022/03/23 07:55:46;;;;;;;23.88;15.00;;;12.40;76.10;;;;;;5034961;28;20029;-80
2022/03/23 07:58:12;;;;;;;23.88;15.00;;;12.80;75.60;;;;;;5016723;28;20061;-79
2022/03/23 08:00:38;;;;;;;24.83;15.00;;;13.10;73.40;;;;;;5035766;28;20056;-80
2022/03/23 08:03:05;;;;;;;27.23;14.80;;;13.50;72.60;;;;;;5035941;28;20021;-78
2022/03/23 08:05:31;;;;;;;23.73;14.30;;;13.90;70.40;;;;;;5036858;28;20480;-76
2022/03/23 08:07:57;;;;;;;24.83;14.57;;;14.30;68.70;;;;;;5036653;28;20068;-78
2022/03/23 08:10:23;;;;;;;23.52;14.85;;;14.60;69.70;;;;;;5036013;28;20029;-79
2022/03/23 08:12:48;;;;;;;24.30;14.15;;;15.10;67.40;;;;;;5036734;28;20026;-78
2022/03/23 08:15:14;;;;;;;23.38;14.57;;;15.20;64.90;;;;;;5017529;28;20029;-79
2022/03/23 08:17:39;;;;;;;24.55;15.20;;;15.30;63.80;;;;;;5036062;28;20504;-78
2022/03/23 08:22:55;;;;;;;27.30;15.70;;;15.60;61.70;;;;;;5040510;28;20041;-79
2022/03/23 08:25:22;;;;;;;25.55;14.68;;;15.80;59.90;;;;;;5038936;28;20026;-81
2022/03/23 08:27:48;;;;;;;24.63;16.10;;;16.00;59.80;;;;;;5023070;28;20045;-80
2022/03/23 08:30:14;;;;;;;22.92;15.10;;;16.20;59.00;;;;;;5041431;28;20438;-80
2022/03/23 08:32:39;;;;;;;24.77;15.68;;;16.40;58.40;;;;;;5039857;28;20025;-78
2022/03/23 08:35:06;;;;;;;25.10;16.02;;;16.70;57.10;;;;;;5039774;28;20040;-79
2022/03/23 08:37:32;;;;;;;25.80;15.95;;;16.90;57.20;;;;;;5041618;28;20030;-79
2022/03/23 08:39:58;;;;;;;23.48;15.48;;;17.00;56.00;;;;;;5039144;28;20113;-78
2022/03/23 08:42:24;;;;;;;19.80;14.38;;;17.10;56.00;;;;;;5039013;28;20548;-79
2022/03/23 08:44:49;;;;;;;24.67;14.65;;;17.40;55.60;;;;;;5052492;28;20114;-77
2022/03/23 08:47:15;;;;;;;24.88;16.27;;;17.50;55.70;;;;;;5058922;28;20029;-80
2022/03/23 08:49:40;;;;;;;25.48;15.77;;;17.70;53.00;;;;;;5058400;28;20033;-79
2022/03/23 08:52:06;;;;;;;27.10;16.45;;;18.00;54.00;;;;;;5040676;28;20071;-79
2022/03/23 08:54:32;;;;;;;24.80;15.00;;;18.10;52.60;;;;;;5042217;28;20033;-78
2022/03/23 08:56:58;;;;;;;20.95;15.20;;;18.20;52.30;;;;;;5058851;28;20123;-78
2022/03/23 08:59:23;;;;;;;23.67;15.77;;;18.20;51.40;;;;;;5059285;28;20442;-79
2022/03/23 09:01:49;;;;;;;21.92;14.98;;;18.40;51.20;;;;;;5058978;28;20052;-80
2022/03/23 09:04:15;;;;;;;24.27;16.38;;;18.70;51.10;;;;;;5059251;28;20052;-79
2022/03/23 09:06:41;;;;;;;22.30;14.82;;;18.70;49.60;;;;;;5058606;28;20094;-79
2022/03/23 09:09:06;;;;;;;24.52;14.90;;;18.70;50.30;;;;;;5058749;28;20045;-78
2022/03/23 09:11:32;;;;;;;23.80;15.35;;;18.90;50.20;;;;;;5040415;28;20032;-79
2022/03/23 09:13:58;;;;;;;24.10;15.20;;;19.00;49.70;;;;;;5059190;28;20061;-80
2022/03/23 09:16:24;;;;;;;25.15;16.02;;;19.00;49.30;;;;;;5058598;28;20036;-76
2022/03/23 09:18:50;;;;;;;26.95;15.52;;;19.10;49.20;;;;;;5059884;28;20468;-80
2022/03/23 09:21:16;;;;;;;30.05;16.63;;;19.10;48.60;;;;;;5059463;28;20025;-78
2022/03/23 09:23:42;;;;;;;25.33;15.80;;;19.10;48.50;;;;;;5059189;28;20029;-79
2022/03/23 09:26:09;;;;;;;30.02;16.15;;;19.00;48.40;;;;;;5057979;28;20047;-79
2022/03/23 09:28:35;;;;;;;29.75;15.73;;;19.10;48.10;;;;;;5039479;28;20029;-80
2022/03/23 09:31:01;;;;;;;29.17;16.30;;;19.30;48.30;;;;;;5058084;28;20032;-77
2022/03/23 09:33:28;;;;;;;30.67;15.27;;;19.30;47.30;;;;;;5060060;28;20232;-78
2022/03/23 09:35:53;;;;;;;33.08;16.80;;;19.50;46.90;;;;;;5040288;28;20025;-76
2022/03/23 09:38:19;;;;;;;29.17;16.80;;;19.50;46.30;;;;;;5040561;28;20048;-79
2022/03/23 09:40:52;;;;;;;28.40;16.75;;;19.50;45.80;;;;;;5040709;28;20023;-78
2022/03/23 09:43:22;;;;;;;28.77;17.70;;;19.60;46.00;;;;;;5059502;28;20033;-80
2022/03/23 09:45:50;;;;;;;29.45;17.92;;;19.80;45.10;;;;;;5038227;28;20028;-79
2022/03/23 09:48:20;;;;;;;28.05;17.60;;;20.00;44.30;;;;;;5039262;28;20104;-79
2022/03/23 09:50:50;;;;;;;35.28;17.58;;;20.10;44.50;;;;;;5022138;28;20397;-79
2022/03/23 09:53:16;;;;;;;37.72;18.15;;;20.30;44.20;;;;;;5039616;28;20018;-78
2022/03/23 09:55:45;;;;;;;32.92;18.58;;;20.20;43.80;;;;;;5021652;28;20029;-77
2022/03/23 09:58:11;;;;;;;44.20;18.75;;;20.30;44.20;;;;;;5038021;28;20097;-79
2022/03/23 10:00:42;;;;;;;39.75;18.83;;;20.10;44.80;;;;;;5038516;28;20022;-80
2022/03/23 10:03:13;;;;;;;42.90;19.88;;;19.80;44.50;;;;;;5038000;28;20088;-79
2022/03/23 10:05:51;;;;;;;35.28;19.63;;;19.80;45.20;;;;;;5019729;28;20021;-77
2022/03/23 10:08:31;;;;;;;39.25;21.27;;;19.90;45.20;;;;;;5019886;28;20431;-76
2022/03/23 10:11:18;;;;;;;33.72;19.17;;;20.20;45.50;;;;;;5037614;28;20021;-78
2022/03/23 10:14:21;;;;;;;36.47;19.50;;;20.30;45.50;;;;;;5021772;28;20037;-76
2022/03/23 10:17:06;;;;;;;30.63;19.80;;;20.60;44.80;;;;;;5022060;28;20041;-78
2022/03/23 10:19:31;;;;;;;29.33;18.63;;;20.70;43.90;;;;;;5022195;28;20028;-78
2022/03/23 10:22:09;;;;;;;33.25;18.50;;;20.80;43.50;;;;;;5040614;28;20354;-79
2022/03/23 10:24:35;;;;;;;27.50;18.42;;;21.00;42.80;;;;;;5042833;28;20473;-79
2022/03/23 10:27:06;;;;;;;34.25;18.70;;;21.00;41.60;;;;;;5023416;28;20120;-78
2022/03/23 10:29:42;;;;;;;27.63;17.52;;;21.20;41.00;;;;;;5021716;28;20095;-80
2022/03/23 10:32:10;;;;;;;34.72;18.40;;;21.20;41.40;;;;;;5019738;28;20025;-77
2022/03/23 10:34:47;;;;;;;32.17;19.40;;;21.30;40.20;;;;;;5037897;28;20025;-79
2022/03/23 10:37:16;;;;;;;30.00;17.75;;;21.20;40.10;;;;;;5018620;28;20037;-78
2022/03/23 10:39:41;;;;;;;29.80;17.25;;;21.20;40.70;;;;;;5037497;28;20025;-80
2022/03/23 10:42:15;;;;;;;29.52;17.63;;;21.30;40.40;;;;;;5036353;28;20036;-80
2022/03/23 10:44:41;;;;;;;32.90;18.15;;;21.50;40.00;;;;;;5028185;28;20033;-79
2022/03/23 10:47:06;;;;;;;26.25;16.60;;;21.30;39.40;;;;;;5038886;28;20032;-80
2022/03/23 10:49:37;;;;;;;27.30;16.25;;;21.30;39.70;;;;;;5056682;28;20079;-77
2022/03/23 10:52:28;;;;;;;25.98;15.85;;;21.50;40.10;;;;;;5058540;28;20112;-78
2022/03/23 10:55:04;;;;;;;24.73;15.98;;;21.60;39.40;;;;;;5037814;28;20025;-77
2022/03/23 10:57:44;;;;;;;21.70;15.32;;;21.60;38.90;;;;;;5055303;28;20503;-78
2022/03/23 11:00:30;;;;;;;25.95;16.25;;;21.80;40.20;;;;;;5056135;28;20025;-78
2022/03/23 11:02:56;;;;;;;21.90;14.32;;;22.00;37.60;;;;;;5056860;28;20029;-79
2022/03/23 11:05:48;;;;;;;23.48;15.27;;;22.10;36.80;;;;;;5037275;28;20032;-80
2022/03/23 11:08:24;;;;;;;19.13;13.13;;;22.10;36.20;;;;;;5036308;28;20020;-78
2022/03/23 11:16:48;;;;;;;23.48;16.23;;;22.30;38.30;;;;;;5060706;28;20063;-78
2022/03/23 11:19:19;;;;;;;21.90;13.73;;;22.10;37.50;;;;;;5056145;28;20036;-76
2022/03/23 11:22:09;;;;;;;21.48;14.65;;;22.10;35.20;;;;;;5054514;28;20025;-77
2022/03/23 11:24:36;;;;;;;23.85;16.48;;;21.80;36.10;;;;;;5036921;28;20028;-77
2022/03/23 11:27:06;;;;;;;25.15;15.82;;;21.70;36.20;;;;;;5055041;28;20029;-78
2022/03/23 11:29:33;;;;;;;23.42;14.10;;;21.60;35.80;;;;;;5054822;28;20023;-78
2022/03/23 11:32:07;;;;;;;21.20;13.98;;;21.60;35.20;;;;;;5055782;28;20380;-79
2022/03/23 11:34:36;;;;;;;21.23;14.02;;;21.60;36.50;;;;;;5060369;28;20029;-78
2022/03/23 11:37:03;;;;;;;25.38;15.82;;;21.60;36.50;;;;;;5045793;28;20548;-79
2022/03/23 11:39:30;;;;;;;22.02;14.88;;;21.70;36.40;;;;;;5044881;28;20092;-80
2022/03/23 11:41:58;;;;;;;21.40;15.27;;;21.90;37.20;;;;;;5062296;28;20017;-79
2022/03/23 11:44:25;;;;;;;19.35;15.45;;;21.40;36.30;;;;;;5035337;28;20114;-79
2022/03/23 11:46:56;;;;;;;20.80;15.07;;;21.50;36.30;;;;;;5031109;28;20035;-78
2022/03/23 11:49:30;;;;;;;24.77;16.55;;;21.60;36.40;;;;;;5053568;28;20116;-81
2022/03/23 11:52:21;;;;;;;24.83;16.52;;;21.60;36.20;;;;;;5051026;28;20049;-78
2022/03/23 11:57:54;;;;;;;21.95;16.83;;;21.70;36.40;;;;;;5039910;28;20052;-79
2022/03/23 12:00:27;;;;;;;21.25;14.93;;;21.60;35.70;;;;;;5040572;28;20024;-78
2022/03/23 12:02:56;;;;;;;21.35;15.88;;;21.60;35.60;;;;;;5041685;28;20017;-76
2022/03/23 12:05:30;;;;;;;22.27;15.38;;;21.40;36.80;;;;;;5041912;28;20025;-78
2022/03/23 12:07:56;;;;;;;21.25;14.90;;;21.50;36.50;;;;;;5040623;28;20028;-79
2022/03/23 12:10:25;;;;;;;21.77;15.90;;;21.70;37.80;;;;;;5041524;28;20036;-78
2022/03/23 12:12:50;;;;;;;23.17;15.68;;;21.70;36.50;;;;;;5041645;28;20496;-79
2022/03/23 12:15:30;;;;;;;21.50;14.25;;;21.90;37.00;;;;;;5041331;28;20086;-79
2022/03/23 12:17:56;;;;;;;18.27;12.65;;;22.20;38.70;;;;;;5024213;28;20033;-79
2022/03/23 12:20:37;;;;;;;18.98;14.45;;;22.40;36.80;;;;;;5023342;28;20123;-78
2022/03/23 12:23:15;;;;;;;20.02;13.80;;;22.60;35.20;;;;;;5041006;28;20025;-78
2022/03/23 12:25:56;;;;;;;18.42;14.38;;;22.80;36.50;;;;;;5042697;28;20025;-77
2022/03/23 12:28:51;;;;;;;18.17;13.88;;;22.90;34.00;;;;;;5024037;28;20036;-79
2022/03/23 12:31:17;;;;;;;21.45;14.10;;;23.10;34.10;;;;;;5042770;28;20681;-78
2022/03/23 12:34:12;;;;;;;20.13;14.35;;;23.00;35.60;;;;;;5042756;28;20029;-77
2022/03/23 12:37:01;;;;;;;24.60;16.10;;;22.80;35.70;;;;;;5043349;28;20481;-79
2022/03/23 12:39:32;;;;;;;26.48;15.02;;;22.80;34.80;;;;;;5043687;28;20021;-78
2022/03/23 12:42:11;;;;;;;28.70;15.63;;;22.60;35.20;;;;;;5025896;28;20093;-78
2022/03/23 12:44:48;;;;;;;20.60;15.07;;;22.30;35.20;;;;;;5075086;22;20405;-78
2022/03/23 12:47:16;;;;;;;22.95;16.25;;;22.40;35.70;;;;;;5062676;28;20017;-80
2022/03/23 12:58:17;;;;;;;19.65;14.02;;;22.20;35.20;;;;;;5040610;28;20410;-79
2022/03/23 13:00:45;;;;;;;20.27;14.95;;;22.30;35.90;;;;;;5024346;28;20022;-79
2022/03/23 13:03:10;;;;;;;22.67;16.42;;;22.40;35.90;;;;;;5024621;28;20033;-80
2022/03/23 13:05:58;;;;;;;20.55;15.50;;;22.30;34.30;;;;;;5042529;28;20018;-80
2022/03/23 13:08:30;;;;;;;21.80;16.30;;;22.00;34.90;;;;;;5027327;28;20029;-78